sensor_id;sensor_type;location;lat;lon;timestamp;P1;durP1;ratioP1;P2;durP2;ratioP2
17566;SDS011;8901;52.088;5.084;2023-09-12T00:01:33;27.50;;;22.60;;
17566;SDS011;8901;52.088;5.084;2023-09-12T00:04:02;30.45;;;25.05;;
17566;SDS011;8901;52.088;5.084;2023-09-12T00:06:30;28.13;;;24.05;;
17566;SDS011;8901;52.088;5.084;2023-09-12T00:08:57;31.60;;;26.13;;
17566;SDS011;8901;52.088;5.084;2023-09-12T00:11:24;30.30;;;26.33;;
17566;SDS011;8901;52.088;5.084;2023-09-12T00:13:52;29.20;;;23.85;;
17566;SDS011;8901;52.088;5.084;2023-09-12T00:16:19;33.95;;;26.63;;
17566;SDS011;8901;52.088;5.084;2023-09-12T00:18:47;32.42;;;26.63;;
17566;SDS011;8901;52.088;5.084;2023-09-12T00:21:15;28.63;;;25.58;;
17566;SDS011;8901;52.088;5.084;2023-09-12T00:23:43;23.55;;;19.80;;
17566;SDS011;8901;52.088;5.084;2023-09-12T00:26:10;30.40;;;27.08;;
17566;SDS011;8901;52.088;5.084;2023-09-12T00:28:37;29.80;;;26.52;;
17566;SDS011;8901;52.088;5.084;2023-09-12T00:31:05;32.35;;;27.15;;
17566;SDS011;8901;52.088;5.084;2023-09-12T00:33:32;30.13;;;26.92;;
17566;SDS011;8901;52.088;5.084;2023-09-12T00:36:00;33.35;;;28.27;;
17566;SDS011;8901;52.088;5.084;2023-09-12T00:38:28;29.55;;;26.00;;
17566;SDS011;8901;52.088;5.084;2023-09-12T00:40:56;21.58;;;19.40;;
17566;SDS011;8901;52.088;5.084;2023-09-12T00:43:23;33.25;;;26.30;;
17566;SDS011;8901;52.088;5.084;2023-09-12T00:45:50;17.15;;;15.38;;
17566;SDS011;8901;52.088;5.084;2023-09-12T00:48:17;33.95;;;28.13;;
17566;SDS011;8901;52.088;5.084;2023-09-12T00:50:45;32.33;;;28.70;;
17566;SDS011;8901;52.088;5.084;2023-09-12T00:53:13;34.78;;;29.75;;
17566;SDS011;8901;52.088;5.084;2023-09-12T00:55:42;38.28;;;31.65;;
17566;SDS011;8901;52.088;5.084;2023-09-12T00:58:12;39.20;;;32.42;;
17566;SDS011;8901;52.088;5.084;2023-09-12T01:00:40;37.67;;;30.00;;
17566;SDS011;8901;52.088;5.084;2023-09-12T01:03:07;31.65;;;26.70;;
17566;SDS011;8901;52.088;5.084;2023-09-12T01:05:35;26.50;;;23.58;;
17566;SDS011;8901;52.088;5.084;2023-09-12T01:08:03;35.42;;;31.58;;
17566;SDS011;8901;52.088;5.084;2023-09-12T01:10:30;38.55;;;31.73;;
17566;SDS011;8901;52.088;5.084;2023-09-12T01:12:59;38.15;;;33.47;;
17566;SDS011;8901;52.088;5.084;2023-09-12T01:15:26;37.38;;;31.20;;
17566;SDS011;8901;52.088;5.084;2023-09-12T01:17:53;37.95;;;31.65;;
17566;SDS011;8901;52.088;5.084;2023-09-12T01:20:22;38.20;;;31.85;;
17566;SDS011;8901;52.088;5.084;2023-09-12T01:22:52;27.30;;;24.35;;
17566;SDS011;8901;52.088;5.084;2023-09-12T01:25:34;31.20;;;27.80;;
17566;SDS011;8901;52.088;5.084;2023-09-12T01:28:09;31.50;;;26.83;;
17566;SDS011;8901;52.088;5.084;2023-09-12T01:30:36;41.83;;;34.80;;
17566;SDS011;8901;52.088;5.084;2023-09-12T01:33:06;39.20;;;32.38;;
17566;SDS011;8901;52.088;5.084;2023-09-12T01:35:33;25.08;;;22.50;;
17566;SDS011;8901;52.088;5.084;2023-09-12T01:38:01;29.55;;;25.92;;
17566;SDS011;8901;52.088;5.084;2023-09-12T01:40:33;36.83;;;32.25;;
17566;SDS011;8901;52.088;5.084;2023-09-12T01:43:01;30.67;;;27.23;;
17566;SDS011;8901;52.088;5.084;2023-09-12T01:45:31;29.65;;;25.65;;
17566;SDS011;8901;52.088;5.084;2023-09-12T01:47:59;42.45;;;35.00;;
17566;SDS011;8901;52.088;5.084;2023-09-12T01:50:27;23.00;;;20.55;;
17566;SDS011;8901;52.088;5.084;2023-09-12T01:52:55;27.48;;;24.63;;
17566;SDS011;8901;52.088;5.084;2023-09-12T01:55:22;39.78;;;33.55;;
17566;SDS011;8901;52.088;5.084;2023-09-12T01:57:50;38.72;;;33.67;;
17566;SDS011;8901;52.088;5.084;2023-09-12T02:00:18;39.85;;;34.15;;
17566;SDS011;8901;52.088;5.084;2023-09-12T02:02:47;40.00;;;35.08;;
17566;SDS011;8901;52.088;5.084;2023-09-12T02:05:15;43.28;;;34.58;;
17566;SDS011;8901;52.088;5.084;2023-09-12T02:07:43;37.97;;;32.53;;
17566;SDS011;8901;52.088;5.084;2023-09-12T02:10:11;37.78;;;32.72;;
17566;SDS011;8901;52.088;5.084;2023-09-12T02:12:39;24.50;;;22.00;;
17566;SDS011;8901;52.088;5.084;2023-09-12T02:15:06;37.33;;;31.63;;
17566;SDS011;8901;52.088;5.084;2023-09-12T02:17:34;40.97;;;34.38;;
17566;SDS011;8901;52.088;5.084;2023-09-12T02:20:03;38.63;;;33.58;;
17566;SDS011;8901;52.088;5.084;2023-09-12T02:22:31;42.22;;;35.78;;
17566;SDS011;8901;52.088;5.084;2023-09-12T02:24:58;29.77;;;25.38;;
17566;SDS011;8901;52.088;5.084;2023-09-12T02:27:25;42.20;;;33.67;;
17566;SDS011;8901;52.088;5.084;2023-09-12T02:29:52;40.95;;;34.55;;
17566;SDS011;8901;52.088;5.084;2023-09-12T02:32:20;30.33;;;27.10;;
17566;SDS011;8901;52.088;5.084;2023-09-12T02:34:47;39.75;;;33.03;;
17566;SDS011;8901;52.088;5.084;2023-09-12T02:37:16;36.53;;;30.73;;
17566;SDS011;8901;52.088;5.084;2023-09-12T02:39:43;37.83;;;31.60;;
17566;SDS011;8901;52.088;5.084;2023-09-12T02:42:10;28.70;;;25.27;;
17566;SDS011;8901;52.088;5.084;2023-09-12T02:44:37;41.92;;;34.72;;
17566;SDS011;8901;52.088;5.084;2023-09-12T02:47:04;32.72;;;29.00;;
17566;SDS011;8901;52.088;5.084;2023-09-12T02:49:32;27.58;;;24.65;;
17566;SDS011;8901;52.088;5.084;2023-09-12T02:51:59;46.35;;;36.08;;
17566;SDS011;8901;52.088;5.084;2023-09-12T02:54:28;43.72;;;36.00;;
17566;SDS011;8901;52.088;5.084;2023-09-12T02:56:55;35.50;;;29.35;;
17566;SDS011;8901;52.088;5.084;2023-09-12T02:59:22;39.53;;;32.85;;
17566;SDS011;8901;52.088;5.084;2023-09-12T03:01:49;44.22;;;33.53;;
17566;SDS011;8901;52.088;5.084;2023-09-12T03:04:17;34.80;;;29.60;;
17566;SDS011;8901;52.088;5.084;2023-09-12T03:06:44;43.75;;;35.17;;
17566;SDS011;8901;52.088;5.084;2023-09-12T03:09:11;42.00;;;34.20;;
17566;SDS011;8901;52.088;5.084;2023-09-12T03:11:40;36.10;;;30.90;;
17566;SDS011;8901;52.088;5.084;2023-09-12T03:14:07;32.53;;;27.98;;
17566;SDS011;8901;52.088;5.084;2023-09-12T03:16:35;35.33;;;30.60;;
17566;SDS011;8901;52.088;5.084;2023-09-12T03:19:02;41.35;;;35.28;;
17566;SDS011;8901;52.088;5.084;2023-09-12T03:21:30;37.15;;;32.97;;
17566;SDS011;8901;52.088;5.084;2023-09-12T03:23:57;36.65;;;32.03;;
17566;SDS011;8901;52.088;5.084;2023-09-12T03:26:24;40.05;;;33.08;;
17566;SDS011;8901;52.088;5.084;2023-09-12T03:28:53;34.38;;;29.52;;
17566;SDS011;8901;52.088;5.084;2023-09-12T03:31:20;22.10;;;19.73;;
17566;SDS011;8901;52.088;5.084;2023-09-12T03:33:47;24.90;;;22.25;;
17566;SDS011;8901;52.088;5.084;2023-09-12T03:36:15;30.00;;;24.00;;
17566;SDS011;8901;52.088;5.084;2023-09-12T03:38:43;32.72;;;28.85;;
17566;SDS011;8901;52.088;5.084;2023-09-12T03:41:10;41.40;;;34.17;;
17566;SDS011;8901;52.088;5.084;2023-09-12T03:43:37;27.80;;;24.90;;
17566;SDS011;8901;52.088;5.084;2023-09-12T03:46:06;32.72;;;27.95;;
17566;SDS011;8901;52.088;5.084;2023-09-12T03:48:33;36.78;;;30.75;;
17566;SDS011;8901;52.088;5.084;2023-09-12T03:51:02;34.35;;;30.48;;
17566;SDS011;8901;52.088;5.084;2023-09-12T03:53:30;36.05;;;26.42;;
17566;SDS011;8901;52.088;5.084;2023-09-12T03:55:57;40.10;;;35.72;;
17566;SDS011;8901;52.088;5.084;2023-09-12T03:58:25;44.95;;;37.47;;
17566;SDS011;8901;52.088;5.084;2023-09-12T04:00:52;30.98;;;25.30;;
17566;SDS011;8901;52.088;5.084;2023-09-12T04:03:21;30.95;;;26.65;;
17566;SDS011;8901;52.088;5.084;2023-09-12T04:05:49;43.38;;;36.55;;
17566;SDS011;8901;52.088;5.084;2023-09-12T04:08:17;42.38;;;35.63;;
17566;SDS011;8901;52.088;5.084;2023-09-12T04:10:44;43.30;;;36.40;;
17566;SDS011;8901;52.088;5.084;2023-09-12T04:13:11;29.83;;;25.80;;
17566;SDS011;8901;52.088;5.084;2023-09-12T04:15:38;28.08;;;24.58;;
17566;SDS011;8901;52.088;5.084;2023-09-12T04:18:06;29.27;;;25.58;;
17566;SDS011;8901;52.088;5.084;2023-09-12T04:20:34;29.85;;;26.50;;
17566;SDS011;8901;52.088;5.084;2023-09-12T04:23:02;37.42;;;30.30;;
17566;SDS011;8901;52.088;5.084;2023-09-12T04:25:29;37.85;;;33.75;;
17566;SDS011;8901;52.088;5.084;2023-09-12T04:27:56;35.17;;;30.67;;
17566;SDS011;8901;52.088;5.084;2023-09-12T04:30:24;38.88;;;32.22;;
17566;SDS011;8901;52.088;5.084;2023-09-12T04:32:51;21.48;;;19.10;;
17566;SDS011;8901;52.088;5.084;2023-09-12T04:35:18;37.90;;;32.08;;
17566;SDS011;8901;52.088;5.084;2023-09-12T04:37:47;31.77;;;26.17;;
17566;SDS011;8901;52.088;5.084;2023-09-12T04:40:14;33.33;;;27.85;;
17566;SDS011;8901;52.088;5.084;2023-09-12T04:42:42;34.75;;;28.08;;
17566;SDS011;8901;52.088;5.084;2023-09-12T04:45:09;34.58;;;30.67;;
17566;SDS011;8901;52.088;5.084;2023-09-12T04:47:36;38.20;;;31.85;;
17566;SDS011;8901;52.088;5.084;2023-09-12T04:50:04;33.90;;;29.70;;
17566;SDS011;8901;52.088;5.084;2023-09-12T04:52:31;37.08;;;30.42;;
17566;SDS011;8901;52.088;5.084;2023-09-12T04:55:00;30.00;;;26.17;;
17566;SDS011;8901;52.088;5.084;2023-09-12T04:57:28;36.30;;;30.50;;
17566;SDS011;8901;52.088;5.084;2023-09-12T04:59:56;20.88;;;18.67;;
17566;SDS011;8901;52.088;5.084;2023-09-12T05:02:23;29.45;;;25.45;;
17566;SDS011;8901;52.088;5.084;2023-09-12T05:04:51;26.65;;;22.27;;
17566;SDS011;8901;52.088;5.084;2023-09-12T05:07:18;26.88;;;22.40;;
17566;SDS011;8901;52.088;5.084;2023-09-12T05:09:45;25.98;;;21.85;;
17566;SDS011;8901;52.088;5.084;2023-09-12T05:12:14;32.08;;;24.55;;
17566;SDS011;8901;52.088;5.084;2023-09-12T05:14:41;32.42;;;26.08;;
17566;SDS011;8901;52.088;5.084;2023-09-12T05:17:09;21.75;;;18.40;;
17566;SDS011;8901;52.088;5.084;2023-09-12T05:19:36;28.00;;;22.98;;
17566;SDS011;8901;52.088;5.084;2023-09-12T05:22:03;29.35;;;24.05;;
17566;SDS011;8901;52.088;5.084;2023-09-12T05:24:30;30.92;;;24.27;;
17566;SDS011;8901;52.088;5.084;2023-09-12T05:26:58;23.02;;;20.58;;
17566;SDS011;8901;52.088;5.084;2023-09-12T05:29:26;28.58;;;23.38;;
17566;SDS011;8901;52.088;5.084;2023-09-12T05:31:53;23.05;;;19.20;;
17566;SDS011;8901;52.088;5.084;2023-09-12T05:34:21;24.63;;;21.00;;
17566;SDS011;8901;52.088;5.084;2023-09-12T05:36:48;25.23;;;21.63;;
17566;SDS011;8901;52.088;5.084;2023-09-12T05:39:15;28.02;;;22.25;;
17566;SDS011;8901;52.088;5.084;2023-09-12T05:41:43;21.60;;;19.30;;
17566;SDS011;8901;52.088;5.084;2023-09-12T05:44:10;26.70;;;21.63;;
17566;SDS011;8901;52.088;5.084;2023-09-12T05:46:44;27.33;;;23.38;;
17566;SDS011;8901;52.088;5.084;2023-09-12T05:49:11;23.75;;;18.15;;
17566;SDS011;8901;52.088;5.084;2023-09-12T05:51:38;16.27;;;14.60;;
17566;SDS011;8901;52.088;5.084;2023-09-12T05:54:05;24.65;;;20.98;;
17566;SDS011;8901;52.088;5.084;2023-09-12T05:56:33;24.70;;;20.08;;
17566;SDS011;8901;52.088;5.084;2023-09-12T05:59:00;19.95;;;17.83;;
17566;SDS011;8901;52.088;5.084;2023-09-12T06:01:27;18.65;;;16.67;;
17566;SDS011;8901;52.088;5.084;2023-09-12T06:03:56;24.98;;;20.23;;
17566;SDS011;8901;52.088;5.084;2023-09-12T06:06:23;21.70;;;17.38;;
17566;SDS011;8901;52.088;5.084;2023-09-12T06:08:51;20.25;;;15.32;;
17566;SDS011;8901;52.088;5.084;2023-09-12T06:11:18;25.50;;;20.73;;
17566;SDS011;8901;52.088;5.084;2023-09-12T06:13:46;18.40;;;15.00;;
17566;SDS011;8901;52.088;5.084;2023-09-12T06:16:13;22.13;;;18.08;;
17566;SDS011;8901;52.088;5.084;2023-09-12T06:18:40;24.25;;;16.80;;
17566;SDS011;8901;52.088;5.084;2023-09-12T06:21:09;25.90;;;19.90;;
17566;SDS011;8901;52.088;5.084;2023-09-12T06:23:36;19.98;;;16.40;;
17566;SDS011;8901;52.088;5.084;2023-09-12T06:26:03;22.08;;;18.13;;
17566;SDS011;8901;52.088;5.084;2023-09-12T06:28:30;25.60;;;20.90;;
17566;SDS011;8901;52.088;5.084;2023-09-12T06:30:58;21.83;;;17.63;;
17566;SDS011;8901;52.088;5.084;2023-09-12T06:33:25;19.67;;;16.73;;
17566;SDS011;8901;52.088;5.084;2023-09-12T06:35:53;28.35;;;21.35;;
17566;SDS011;8901;52.088;5.084;2023-09-12T06:38:22;24.58;;;19.10;;
17566;SDS011;8901;52.088;5.084;2023-09-12T06:40:50;24.23;;;19.98;;
17566;SDS011;8901;52.088;5.084;2023-09-12T06:43:17;23.35;;;17.10;;
17566;SDS011;8901;52.088;5.084;2023-09-12T06:45:44;28.33;;;21.20;;
17566;SDS011;8901;52.088;5.084;2023-09-12T06:48:12;27.73;;;21.73;;
17566;SDS011;8901;52.088;5.084;2023-09-12T06:50:39;19.33;;;15.65;;
17566;SDS011;8901;52.088;5.084;2023-09-12T06:53:06;29.45;;;21.52;;
17566;SDS011;8901;52.088;5.084;2023-09-12T06:55:36;26.85;;;21.00;;
17566;SDS011;8901;52.088;5.084;2023-09-12T06:58:03;25.45;;;18.90;;
17566;SDS011;8901;52.088;5.084;2023-09-12T07:00:31;24.17;;;18.00;;
17566;SDS011;8901;52.088;5.084;2023-09-12T07:02:58;24.40;;;17.13;;
17566;SDS011;8901;52.088;5.084;2023-09-12T07:05:25;23.73;;;18.48;;
17566;SDS011;8901;52.088;5.084;2023-09-12T07:07:53;28.98;;;18.65;;
17566;SDS011;8901;52.088;5.084;2023-09-12T07:10:20;27.92;;;19.65;;
17566;SDS011;8901;52.088;5.084;2023-09-12T07:12:48;18.38;;;13.70;;
17566;SDS011;8901;52.088;5.084;2023-09-12T07:15:16;21.38;;;17.20;;
17566;SDS011;8901;52.088;5.084;2023-09-12T07:17:43;32.50;;;23.85;;
17566;SDS011;8901;52.088;5.084;2023-09-12T07:20:10;29.70;;;23.00;;
17566;SDS011;8901;52.088;5.084;2023-09-12T07:22:38;27.08;;;20.02;;
17566;SDS011;8901;52.088;5.084;2023-09-12T07:25:06;28.92;;;21.27;;
17566;SDS011;8901;52.088;5.084;2023-09-12T07:27:34;25.45;;;19.65;;
17566;SDS011;8901;52.088;5.084;2023-09-12T07:30:04;34.63;;;26.35;;
17566;SDS011;8901;52.088;5.084;2023-09-12T07:32:31;20.17;;;15.77;;
17566;SDS011;8901;52.088;5.084;2023-09-12T07:34:58;31.77;;;23.42;;
17566;SDS011;8901;52.088;5.084;2023-09-12T07:37:26;30.08;;;23.95;;
17566;SDS011;8901;52.088;5.084;2023-09-12T07:39:53;28.00;;;22.30;;
17566;SDS011;8901;52.088;5.084;2023-09-12T07:42:21;30.17;;;23.40;;
17566;SDS011;8901;52.088;5.084;2023-09-12T07:44:49;36.78;;;26.48;;
17566;SDS011;8901;52.088;5.084;2023-09-12T07:47:17;31.00;;;21.92;;
17566;SDS011;8901;52.088;5.084;2023-09-12T07:49:44;35.97;;;24.77;;
17566;SDS011;8901;52.088;5.084;2023-09-12T07:52:12;35.92;;;25.15;;
17566;SDS011;8901;52.088;5.084;2023-09-12T07:54:39;40.00;;;27.00;;
17566;SDS011;8901;52.088;5.084;2023-09-12T07:57:06;34.83;;;23.55;;
17566;SDS011;8901;52.088;5.084;2023-09-12T07:59:33;38.20;;;25.88;;
17566;SDS011;8901;52.088;5.084;2023-09-12T08:02:01;38.00;;;26.58;;
17566;SDS011;8901;52.088;5.084;2023-09-12T08:04:30;41.30;;;27.13;;
17566;SDS011;8901;52.088;5.084;2023-09-12T08:06:57;40.28;;;28.15;;
17566;SDS011;8901;52.088;5.084;2023-09-12T08:12:13;35.70;;;23.40;;
17566;SDS011;8901;52.088;5.084;2023-09-12T08:14:40;35.10;;;25.55;;
17566;SDS011;8901;52.088;5.084;2023-09-12T08:17:07;41.13;;;29.63;;
17566;SDS011;8901;52.088;5.084;2023-09-12T08:19:36;37.42;;;25.00;;
17566;SDS011;8901;52.088;5.084;2023-09-12T08:22:03;34.55;;;22.42;;
17566;SDS011;8901;52.088;5.084;2023-09-12T08:24:30;26.58;;;19.08;;
17566;SDS011;8901;52.088;5.084;2023-09-12T08:26:58;41.35;;;28.10;;
17566;SDS011;8901;52.088;5.084;2023-09-12T08:29:25;45.90;;;32.75;;
17566;SDS011;8901;52.088;5.084;2023-09-12T08:31:53;48.28;;;32.28;;
17566;SDS011;8901;52.088;5.084;2023-09-12T08:34:20;36.88;;;26.17;;
17566;SDS011;8901;52.088;5.084;2023-09-12T08:36:48;45.03;;;32.80;;
17566;SDS011;8901;52.088;5.084;2023-09-12T08:39:17;41.53;;;28.42;;
17566;SDS011;8901;52.088;5.084;2023-09-12T08:41:44;47.85;;;31.58;;
17566;SDS011;8901;52.088;5.084;2023-09-12T08:44:12;44.72;;;31.63;;
17566;SDS011;8901;52.088;5.084;2023-09-12T08:46:40;41.85;;;29.90;;
17566;SDS011;8901;52.088;5.084;2023-09-12T08:49:09;38.70;;;26.67;;
17566;SDS011;8901;52.088;5.084;2023-09-12T08:51:36;43.45;;;28.52;;
17566;SDS011;8901;52.088;5.084;2023-09-12T08:54:06;45.40;;;31.20;;
17566;SDS011;8901;52.088;5.084;2023-09-12T08:56:34;33.65;;;24.45;;
17566;SDS011;8901;52.088;5.084;2023-09-12T08:59:02;44.60;;;30.60;;
17566;SDS011;8901;52.088;5.084;2023-09-12T09:01:31;34.72;;;24.67;;
17566;SDS011;8901;52.088;5.084;2023-09-12T09:03:58;35.33;;;25.15;;
17566;SDS011;8901;52.088;5.084;2023-09-12T09:06:25;43.20;;;30.98;;
17566;SDS011;8901;52.088;5.084;2023-09-12T09:08:53;44.63;;;31.20;;
17566;SDS011;8901;52.088;5.084;2023-09-12T09:11:22;47.75;;;32.65;;
17566;SDS011;8901;52.088;5.084;2023-09-12T09:13:52;33.80;;;23.63;;
17566;SDS011;8901;52.088;5.084;2023-09-12T09:16:19;40.65;;;29.60;;
17566;SDS011;8901;52.088;5.084;2023-09-12T09:18:50;41.38;;;29.48;;
17566;SDS011;8901;52.088;5.084;2023-09-12T09:21:18;37.13;;;27.05;;
17566;SDS011;8901;52.088;5.084;2023-09-12T09:23:45;33.10;;;24.33;;
17566;SDS011;8901;52.088;5.084;2023-09-12T09:26:13;28.73;;;22.58;;
17566;SDS011;8901;52.088;5.084;2023-09-12T09:28:41;27.25;;;20.73;;
17566;SDS011;8901;52.088;5.084;2023-09-12T09:31:12;39.92;;;28.00;;
17566;SDS011;8901;52.088;5.084;2023-09-12T09:33:40;39.42;;;27.58;;
17566;SDS011;8901;52.088;5.084;2023-09-12T09:36:10;34.58;;;25.85;;
17566;SDS011;8901;52.088;5.084;2023-09-12T09:38:38;34.45;;;26.80;;
17566;SDS011;8901;52.088;5.084;2023-09-12T09:41:07;36.42;;;26.83;;
17566;SDS011;8901;52.088;5.084;2023-09-12T09:43:35;39.78;;;28.75;;
17566;SDS011;8901;52.088;5.084;2023-09-12T09:46:03;32.75;;;24.35;;
17566;SDS011;8901;52.088;5.084;2023-09-12T09:48:31;34.55;;;25.95;;
17566;SDS011;8901;52.088;5.084;2023-09-12T09:50:59;29.40;;;21.30;;
17566;SDS011;8901;52.088;5.084;2023-09-12T09:53:27;34.05;;;26.02;;
17566;SDS011;8901;52.088;5.084;2023-09-12T09:56:07;30.30;;;22.40;;
17566;SDS011;8901;52.088;5.084;2023-09-12T09:58:34;37.92;;;25.95;;
17566;SDS011;8901;52.088;5.084;2023-09-12T10:01:01;33.30;;;24.70;;
17566;SDS011;8901;52.088;5.084;2023-09-12T10:03:31;33.30;;;24.38;;
17566;SDS011;8901;52.088;5.084;2023-09-12T10:06:00;37.05;;;27.08;;
17566;SDS011;8901;52.088;5.084;2023-09-12T10:08:31;33.97;;;24.60;;
17566;SDS011;8901;52.088;5.084;2023-09-12T10:10:59;38.35;;;27.75;;
17566;SDS011;8901;52.088;5.084;2023-09-12T10:13:26;36.70;;;26.58;;
17566;SDS011;8901;52.088;5.084;2023-09-12T10:15:57;34.75;;;25.85;;
17566;SDS011;8901;52.088;5.084;2023-09-12T10:18:25;28.33;;;23.23;;
17566;SDS011;8901;52.088;5.084;2023-09-12T10:20:58;35.92;;;24.75;;
17566;SDS011;8901;52.088;5.084;2023-09-12T10:23:30;33.42;;;25.40;;
17566;SDS011;8901;52.088;5.084;2023-09-12T10:26:02;35.95;;;26.60;;
17566;SDS011;8901;52.088;5.084;2023-09-12T10:28:30;33.55;;;26.67;;
17566;SDS011;8901;52.088;5.084;2023-09-12T10:30:57;28.73;;;21.92;;
17566;SDS011;8901;52.088;5.084;2023-09-12T10:33:27;29.77;;;22.60;;
17566;SDS011;8901;52.088;5.084;2023-09-12T10:35:57;29.95;;;23.40;;
17566;SDS011;8901;52.088;5.084;2023-09-12T10:38:26;24.38;;;20.20;;
17566;SDS011;8901;52.088;5.084;2023-09-12T10:40:53;32.20;;;25.33;;
17566;SDS011;8901;52.088;5.084;2023-09-12T10:43:22;28.38;;;24.15;;
17566;SDS011;8901;52.088;5.084;2023-09-12T10:45:51;28.45;;;23.92;;
17566;SDS011;8901;52.088;5.084;2023-09-12T10:48:18;28.17;;;23.13;;
17566;SDS011;8901;52.088;5.084;2023-09-12T10:50:45;28.50;;;22.77;;
17566;SDS011;8901;52.088;5.084;2023-09-12T10:53:15;29.33;;;22.52;;
17566;SDS011;8901;52.088;5.084;2023-09-12T10:55:43;27.55;;;22.42;;
17566;SDS011;8901;52.088;5.084;2023-09-12T10:58:24;26.83;;;21.98;;
17566;SDS011;8901;52.088;5.084;2023-09-12T11:03:39;26.45;;;20.83;;
17566;SDS011;8901;52.088;5.084;2023-09-12T11:06:06;28.40;;;21.63;;
17566;SDS011;8901;52.088;5.084;2023-09-12T11:08:51;26.55;;;21.52;;
17566;SDS011;8901;52.088;5.084;2023-09-12T11:11:39;26.55;;;22.63;;
17566;SDS011;8901;52.088;5.084;2023-09-12T11:14:06;24.98;;;19.48;;
17566;SDS011;8901;52.088;5.084;2023-09-12T11:16:34;26.73;;;21.45;;
17566;SDS011;8901;52.088;5.084;2023-09-12T11:19:14;31.17;;;23.48;;
17566;SDS011;8901;52.088;5.084;2023-09-12T11:21:42;27.45;;;21.52;;
17566;SDS011;8901;52.088;5.084;2023-09-12T11:24:11;26.95;;;20.80;;
17566;SDS011;8901;52.088;5.084;2023-09-12T11:29:30;28.85;;;21.65;;
17566;SDS011;8901;52.088;5.084;2023-09-12T11:32:01;26.05;;;22.17;;
17566;SDS011;8901;52.088;5.084;2023-09-12T11:34:29;26.13;;;21.70;;
17566;SDS011;8901;52.088;5.084;2023-09-12T11:36:58;24.45;;;21.20;;
17566;SDS011;8901;52.088;5.084;2023-09-12T11:39:30;28.50;;;22.33;;
17566;SDS011;8901;52.088;5.084;2023-09-12T11:41:59;28.45;;;21.75;;
17566;SDS011;8901;52.088;5.084;2023-09-12T11:44:27;27.13;;;21.55;;
17566;SDS011;8901;52.088;5.084;2023-09-12T11:46:55;23.63;;;20.38;;
17566;SDS011;8901;52.088;5.084;2023-09-12T11:49:28;22.75;;;18.70;;
17566;SDS011;8901;52.088;5.084;2023-09-12T11:51:55;24.88;;;20.55;;
17566;SDS011;8901;52.088;5.084;2023-09-12T11:54:24;25.75;;;20.60;;
17566;SDS011;8901;52.088;5.084;2023-09-12T11:56:53;26.05;;;19.98;;
17566;SDS011;8901;52.088;5.084;2023-09-12T11:59:24;24.45;;;20.27;;
17566;SDS011;8901;52.088;5.084;2023-09-12T12:01:52;24.52;;;20.27;;
17566;SDS011;8901;52.088;5.084;2023-09-12T12:04:20;24.13;;;19.73;;
17566;SDS011;8901;52.088;5.084;2023-09-12T12:06:48;26.50;;;20.27;;
17566;SDS011;8901;52.088;5.084;2023-09-12T12:09:15;23.38;;;20.17;;
17566;SDS011;8901;52.088;5.084;2023-09-12T12:11:43;24.10;;;19.63;;
17566;SDS011;8901;52.088;5.084;2023-09-12T12:14:13;22.73;;;19.65;;
17566;SDS011;8901;52.088;5.084;2023-09-12T12:16:40;26.17;;;19.25;;
17566;SDS011;8901;52.088;5.084;2023-09-12T12:19:08;25.02;;;19.98;;
17566;SDS011;8901;52.088;5.084;2023-09-12T12:21:36;25.30;;;19.27;;
17566;SDS011;8901;52.088;5.084;2023-09-12T12:24:04;21.35;;;18.27;;
17566;SDS011;8901;52.088;5.084;2023-09-12T12:26:32;20.70;;;17.77;;
17566;SDS011;8901;52.088;5.084;2023-09-12T12:28:59;19.13;;;16.92;;
17566;SDS011;8901;52.088;5.084;2023-09-12T12:31:28;19.35;;;16.15;;
17566;SDS011;8901;52.088;5.084;2023-09-12T12:33:56;20.48;;;18.23;;
17566;SDS011;8901;52.088;5.084;2023-09-12T12:36:25;25.10;;;18.45;;
17566;SDS011;8901;52.088;5.084;2023-09-12T12:38:53;20.10;;;17.33;;
17566;SDS011;8901;52.088;5.084;2023-09-12T12:41:23;21.65;;;17.90;;
17566;SDS011;8901;52.088;5.084;2023-09-12T12:43:51;18.90;;;16.88;;
17566;SDS011;8901;52.088;5.084;2023-09-12T12:46:19;18.55;;;15.85;;
17566;SDS011;8901;52.088;5.084;2023-09-12T12:48:50;21.95;;;16.73;;
17566;SDS011;8901;52.088;5.084;2023-09-12T12:51:18;15.15;;;13.55;;
17566;SDS011;8901;52.088;5.084;2023-09-12T12:53:45;19.50;;;16.25;;
17566;SDS011;8901;52.088;5.084;2023-09-12T12:56:14;19.95;;;17.13;;
17566;SDS011;8901;52.088;5.084;2023-09-12T12:58:47;19.75;;;17.45;;
17566;SDS011;8901;52.088;5.084;2023-09-12T13:01:14;19.65;;;17.50;;
17566;SDS011;8901;52.088;5.084;2023-09-12T13:03:42;20.48;;;15.73;;
17566;SDS011;8901;52.088;5.084;2023-09-12T13:06:11;19.05;;;14.82;;
17566;SDS011;8901;52.088;5.084;2023-09-12T13:08:40;17.02;;;14.10;;
17566;SDS011;8901;52.088;5.084;2023-09-12T13:11:08;16.27;;;13.98;;
17566;SDS011;8901;52.088;5.084;2023-09-12T13:13:36;16.38;;;13.65;;
17566;SDS011;8901;52.088;5.084;2023-09-12T13:16:03;15.02;;;11.63;;
17566;SDS011;8901;52.088;5.084;2023-09-12T13:18:31;12.00;;;9.02;;
17566;SDS011;8901;52.088;5.084;2023-09-12T13:20:58;13.30;;;8.70;;
17566;SDS011;8901;52.088;5.084;2023-09-12T13:23:27;13.82;;;8.55;;
17566;SDS011;8901;52.088;5.084;2023-09-12T13:25:55;9.10;;;7.00;;
17566;SDS011;8901;52.088;5.084;2023-09-12T13:28:23;9.07;;;7.07;;
17566;SDS011;8901;52.088;5.084;2023-09-12T13:30:51;9.93;;;6.38;;
17566;SDS011;8901;52.088;5.084;2023-09-12T13:33:18;7.43;;;6.68;;
17566;SDS011;8901;52.088;5.084;2023-09-12T13:35:46;6.00;;;5.40;;
17566;SDS011;8901;52.088;5.084;2023-09-12T13:38:15;5.40;;;4.90;;
17566;SDS011;8901;52.088;5.084;2023-09-12T13:40:46;5.60;;;4.97;;
17566;SDS011;8901;52.088;5.084;2023-09-12T13:43:13;6.28;;;5.57;;
17566;SDS011;8901;52.088;5.084;2023-09-12T13:45:41;8.68;;;7.78;;
17566;SDS011;8901;52.088;5.084;2023-09-12T13:48:08;6.85;;;5.97;;
17566;SDS011;8901;52.088;5.084;2023-09-12T13:50:37;7.43;;;6.72;;
17566;SDS011;8901;52.088;5.084;2023-09-12T13:53:05;6.93;;;6.15;;
17566;SDS011;8901;52.088;5.084;2023-09-12T13:55:32;6.88;;;6.25;;
17566;SDS011;8901;52.088;5.084;2023-09-12T13:58:03;7.78;;;6.97;;
17566;SDS011;8901;52.088;5.084;2023-09-12T14:00:30;8.15;;;7.15;;
17566;SDS011;8901;52.088;5.084;2023-09-12T14:02:58;9.35;;;7.00;;
17566;SDS011;8901;52.088;5.084;2023-09-12T14:05:25;7.75;;;6.97;;
17566;SDS011;8901;52.088;5.084;2023-09-12T14:07:52;10.18;;;7.88;;
17566;SDS011;8901;52.088;5.084;2023-09-12T14:10:20;8.07;;;7.25;;
17566;SDS011;8901;52.088;5.084;2023-09-12T14:12:47;8.70;;;7.90;;
17566;SDS011;8901;52.088;5.084;2023-09-12T14:15:16;9.77;;;7.45;;
17566;SDS011;8901;52.088;5.084;2023-09-12T14:17:44;9.52;;;7.57;;
17566;SDS011;8901;52.088;5.084;2023-09-12T14:20:11;10.18;;;8.50;;
17566;SDS011;8901;52.088;5.084;2023-09-12T14:22:40;9.98;;;9.00;;
17566;SDS011;8901;52.088;5.084;2023-09-12T14:25:08;9.55;;;8.43;;
17566;SDS011;8901;52.088;5.084;2023-09-12T14:27:40;8.07;;;6.82;;
17566;SDS011;8901;52.088;5.084;2023-09-12T14:30:08;9.18;;;7.35;;
17566;SDS011;8901;52.088;5.084;2023-09-12T14:32:38;8.15;;;6.88;;
17566;SDS011;8901;52.088;5.084;2023-09-12T14:35:05;6.70;;;6.10;;
17566;SDS011;8901;52.088;5.084;2023-09-12T14:37:33;7.45;;;6.68;;
17566;SDS011;8901;52.088;5.084;2023-09-12T14:40:02;9.98;;;8.15;;
17566;SDS011;8901;52.088;5.084;2023-09-12T14:42:30;7.57;;;6.88;;
17566;SDS011;8901;52.088;5.084;2023-09-12T14:44:57;8.13;;;7.32;;
17566;SDS011;8901;52.088;5.084;2023-09-12T14:47:24;8.52;;;7.72;;
17566;SDS011;8901;52.088;5.084;2023-09-12T14:49:54;7.78;;;7.05;;
17566;SDS011;8901;52.088;5.084;2023-09-12T14:52:21;8.32;;;7.60;;